sensor_id;sensor_type;location;lat;lon;timestamp;pressure;altitude;pressure_sealevel;temperature;humidity
50368;BME280;36281;34.132;-118.018;2023-04-28T00:01:12;99707.00;;;27.68;36.10
50368;BME280;36281;34.132;-118.018;2023-04-28T00:03:41;99713.06;;;27.65;36.24
50368;BME280;36281;34.132;-118.018;2023-04-28T00:06:10;99711.38;;;27.60;36.29
50368;BME280;36281;34.132;-118.018;2023-04-28T00:08:41;99706.28;;;27.50;36.13
50368;BME280;36281;34.132;-118.018;2023-04-28T00:11:10;99703.13;;;27.39;36.49
50368;BME280;36281;34.132;-118.018;2023-04-28T00:13:39;99706.38;;;27.33;36.99
50368;BME280;36281;34.132;-118.018;2023-04-28T00:16:08;99717.78;;;27.26;37.48
50368;BME280;36281;34.132;-118.018;2023-04-28T00:18:37;99706.75;;;27.22;37.58
50368;BME280;36281;34.132;-118.018;2023-04-28T00:21:06;99706.59;;;27.19;37.39
50368;BME280;36281;34.132;-118.018;2023-04-28T00:23:36;99715.91;;;27.09;37.31
50368;BME280;36281;34.132;-118.018;2023-04-28T00:26:06;99711.28;;;27.01;37.85
50368;BME280;36281;34.132;-118.018;2023-04-28T00:28:35;99706.50;;;26.89;38.18
50368;BME280;36281;34.132;-118.018;2023-04-28T00:31:10;99713.88;;;26.89;38.07
50368;BME280;36281;34.132;-118.018;2023-04-28T00:33:43;99717.72;;;26.79;38.19
50368;BME280;36281;34.132;-118.018;2023-04-28T00:36:12;99718.41;;;26.67;38.47
50368;BME280;36281;34.132;-118.018;2023-04-28T00:38:41;99711.72;;;26.56;38.84
50368;BME280;36281;34.132;-118.018;2023-04-28T00:41:12;99718.56;;;26.45;39.07
50368;BME280;36281;34.132;-118.018;2023-04-28T00:43:46;99717.44;;;26.37;38.84
50368;BME280;36281;34.132;-118.018;2023-04-28T00:46:20;99696.03;;;26.18;39.19
50368;BME280;36281;34.132;-118.018;2023-04-28T00:48:50;99716.16;;;26.17;39.03
50368;BME280;36281;34.132;-118.018;2023-04-28T00:51:19;99713.28;;;26.05;39.34
50368;BME280;36281;34.132;-118.018;2023-04-28T00:53:49;99709.78;;;25.96;39.79
50368;BME280;36281;34.132;-118.018;2023-04-28T00:56:21;99704.34;;;25.87;40.01
50368;BME280;36281;34.132;-118.018;2023-04-28T00:58:50;99717.25;;;25.82;40.07
50368;BME280;36281;34.132;-118.018;2023-04-28T01:01:18;99700.56;;;25.66;40.12
50368;BME280;36281;34.132;-118.018;2023-04-28T01:03:48;99708.72;;;25.66;40.32
50368;BME280;36281;34.132;-118.018;2023-04-28T01:06:17;99710.94;;;25.55;40.21
50368;BME280;36281;34.132;-118.018;2023-04-28T01:08:48;99714.56;;;25.50;40.47
50368;BME280;36281;34.132;-118.018;2023-04-28T01:11:22;99722.06;;;25.45;40.86
50368;BME280;36281;34.132;-118.018;2023-04-28T01:13:51;99725.56;;;25.37;40.76
50368;BME280;36281;34.132;-118.018;2023-04-28T01:16:20;99726.78;;;25.31;41.33
50368;BME280;36281;34.132;-118.018;2023-04-28T01:18:49;99724.84;;;25.22;41.37
50368;BME280;36281;34.132;-118.018;2023-04-28T01:21:25;99730.41;;;25.17;41.50
50368;BME280;36281;34.132;-118.018;2023-04-28T01:23:58;99735.78;;;25.09;41.62
50368;BME280;36281;34.132;-118.018;2023-04-28T01:26:27;99728.69;;;24.99;41.65
50368;BME280;36281;34.132;-118.018;2023-04-28T01:28:56;99734.84;;;24.91;41.85
50368;BME280;36281;34.132;-118.018;2023-04-28T01:31:25;99726.06;;;24.85;42.33
50368;BME280;36281;34.132;-118.018;2023-04-28T01:33:54;99732.25;;;24.77;42.65
50368;BME280;36281;34.132;-118.018;2023-04-28T01:36:23;99742.03;;;24.64;42.80
50368;BME280;36281;34.132;-118.018;2023-04-28T01:38:54;99742.06;;;24.50;43.12
50368;BME280;36281;34.132;-118.018;2023-04-28T01:41:25;99750.44;;;24.40;43.07
50368;BME280;36281;34.132;-118.018;2023-04-28T01:43:54;99747.13;;;24.30;43.27
50368;BME280;36281;34.132;-118.018;2023-04-28T01:46:23;99747.16;;;24.16;43.85
50368;BME280;36281;34.132;-118.018;2023-04-28T01:48:52;99752.31;;;24.04;44.00
50368;BME280;36281;34.132;-118.018;2023-04-28T01:51:21;99759.53;;;23.94;44.64
50368;BME280;36281;34.132;-118.018;2023-04-28T01:53:50;99756.25;;;23.84;44.74
50368;BME280;36281;34.132;-118.018;2023-04-28T01:56:19;99755.34;;;23.75;45.18
50368;BME280;36281;34.132;-118.018;2023-04-28T01:58:50;99757.22;;;23.60;45.14
50368;BME280;36281;34.132;-118.018;2023-04-28T02:01:19;99746.81;;;23.40;45.62
50368;BME280;36281;34.132;-118.018;2023-04-28T02:03:48;99756.03;;;23.39;45.56
50368;BME280;36281;34.132;-118.018;2023-04-28T02:06:18;99762.44;;;23.29;45.98
50368;BME280;36281;34.132;-118.018;2023-04-28T02:08:47;99760.81;;;23.14;46.29
50368;BME280;36281;34.132;-118.018;2023-04-28T02:11:16;99766.38;;;23.04;46.48
50368;BME280;36281;34.132;-118.018;2023-04-28T02:13:45;99765.22;;;22.91;46.95
50368;BME280;36281;34.132;-118.018;2023-04-28T02:16:16;99760.50;;;22.83;47.53
50368;BME280;36281;34.132;-118.018;2023-04-28T02:18:45;99768.25;;;22.71;47.42
50368;BME280;36281;34.132;-118.018;2023-04-28T02:21:14;99761.78;;;22.53;47.90
50368;BME280;36281;34.132;-118.018;2023-04-28T02:23:43;99780.75;;;22.48;48.32
50368;BME280;36281;34.132;-118.018;2023-04-28T02:26:12;99780.38;;;22.36;48.73
50368;BME280;36281;34.132;-118.018;2023-04-28T02:28:41;99777.91;;;22.21;48.90
50368;BME280;36281;34.132;-118.018;2023-04-28T02:31:10;99785.84;;;22.07;49.44
50368;BME280;36281;34.132;-118.018;2023-04-28T02:33:43;99794.06;;;21.97;49.70
50368;BME280;36281;34.132;-118.018;2023-04-28T02:36:12;99750.63;;;21.55;50.11
50368;BME280;36281;34.132;-118.018;2023-04-28T02:38:41;99795.47;;;21.70;50.54
50368;BME280;36281;34.132;-118.018;2023-04-28T02:41:10;99794.78;;;21.59;51.03
50368;BME280;36281;34.132;-118.018;2023-04-28T02:43:39;99798.41;;;21.50;51.34
50368;BME280;36281;34.132;-118.018;2023-04-28T02:46:08;99795.50;;;21.41;51.63
50368;BME280;36281;34.132;-118.018;2023-04-28T02:48:38;99795.34;;;21.27;51.98
50368;BME280;36281;34.132;-118.018;2023-04-28T02:51:09;99792.47;;;21.19;52.42
50368;BME280;36281;34.132;-118.018;2023-04-28T02:53:39;99800.13;;;21.06;52.58
50368;BME280;36281;34.132;-118.018;2023-04-28T02:56:08;99798.34;;;20.91;53.21
50368;BME280;36281;34.132;-118.018;2023-04-28T02:58:37;99799.22;;;20.82;53.61
50368;BME280;36281;34.132;-118.018;2023-04-28T03:01:06;99810.31;;;20.75;54.12
50368;BME280;36281;34.132;-118.018;2023-04-28T03:03:35;99816.03;;;20.69;54.41
50368;BME280;36281;34.132;-118.018;2023-04-28T03:06:05;99814.72;;;20.61;54.79
50368;BME280;36281;34.132;-118.018;2023-04-28T03:08:35;99825.53;;;20.56;55.07
50368;BME280;36281;34.132;-118.018;2023-04-28T03:11:04;99830.69;;;20.47;55.51
50368;BME280;36281;34.132;-118.018;2023-04-28T03:13:34;99831.47;;;20.43;55.79
50368;BME280;36281;34.132;-118.018;2023-04-28T03:16:04;99839.06;;;20.30;56.27
50368;BME280;36281;34.132;-118.018;2023-04-28T03:18:33;99840.44;;;20.23;56.64
50368;BME280;36281;34.132;-118.018;2023-04-28T03:21:03;99847.25;;;20.10;57.06
50368;BME280;36281;34.132;-118.018;2023-04-28T03:23:32;99851.59;;;19.96;57.58
50368;BME280;36281;34.132;-118.018;2023-04-28T03:26:02;99858.06;;;19.84;58.33
50368;BME280;36281;34.132;-118.018;2023-04-28T03:28:31;99857.81;;;19.76;58.58
50368;BME280;36281;34.132;-118.018;2023-04-28T03:31:00;99853.53;;;19.70;59.06
50368;BME280;36281;34.132;-118.018;2023-04-28T03:33:30;99866.16;;;19.64;59.32
50368;BME280;36281;34.132;-118.018;2023-04-28T03:35:59;99866.41;;;19.57;59.64
50368;BME280;36281;34.132;-118.018;2023-04-28T03:38:28;99859.44;;;19.51;59.81
50368;BME280;36281;34.132;-118.018;2023-04-28T03:40:57;99869.09;;;19.47;60.11
50368;BME280;36281;34.132;-118.018;2023-04-28T03:43:27;99868.31;;;19.42;60.60
50368;BME280;36281;34.132;-118.018;2023-04-28T03:45:56;99879.34;;;19.30;60.78
50368;BME280;36281;34.132;-118.018;2023-04-28T03:48:25;99885.22;;;19.22;61.05
50368;BME280;36281;34.132;-118.018;2023-04-28T03:50:55;99886.56;;;19.14;61.68
50368;BME280;36281;34.132;-118.018;2023-04-28T03:53:24;99881.72;;;18.96;62.18
50368;BME280;36281;34.132;-118.018;2023-04-28T03:55:53;99892.19;;;18.92;62.55
50368;BME280;36281;34.132;-118.018;2023-04-28T03:58:22;99887.88;;;18.86;62.93
50368;BME280;36281;34.132;-118.018;2023-04-28T04:00:52;99898.84;;;18.79;63.31
50368;BME280;36281;34.132;-118.018;2023-04-28T04:03:21;99899.66;;;18.75;63.87
50368;BME280;36281;34.132;-118.018;2023-04-28T04:05:54;99900.16;;;18.67;64.14
50368;BME280;36281;34.132;-118.018;2023-04-28T04:08:23;99902.00;;;18.61;64.34
50368;BME280;36281;34.132;-118.018;2023-04-28T04:10:52;99899.56;;;18.54;64.64
50368;BME280;36281;34.132;-118.018;2023-04-28T04:13:22;99905.97;;;18.48;64.87
50368;BME280;36281;34.132;-118.018;2023-04-28T04:15:53;99911.03;;;18.40;65.17
50368;BME280;36281;34.132;-118.018;2023-04-28T04:18:22;99924.69;;;18.33;65.36
50368;BME280;36281;34.132;-118.018;2023-04-28T04:20:51;99920.06;;;18.23;65.67
50368;BME280;36281;34.132;-118.018;2023-04-28T04:23:24;99923.31;;;18.20;66.28
50368;BME280;36281;34.132;-118.018;2023-04-28T04:25:53;99922.44;;;18.15;66.41
50368;BME280;36281;34.132;-118.018;2023-04-28T04:28:23;99930.22;;;18.11;66.67
50368;BME280;36281;34.132;-118.018;2023-04-28T04:30:53;99926.69;;;18.05;66.85
50368;BME280;36281;34.132;-118.018;2023-04-28T04:33:22;99925.31;;;17.98;67.23
50368;BME280;36281;34.132;-118.018;2023-04-28T04:35:51;99934.38;;;17.92;67.62
50368;BME280;36281;34.132;-118.018;2023-04-28T04:38:21;99932.19;;;17.89;67.92
50368;BME280;36281;34.132;-118.018;2023-04-28T04:40:50;99940.22;;;17.83;68.11
50368;BME280;36281;34.132;-118.018;2023-04-28T04:43:19;99939.09;;;17.79;68.27
50368;BME280;36281;34.132;-118.018;2023-04-28T04:45:48;99939.88;;;17.75;68.59
50368;BME280;36281;34.132;-118.018;2023-04-28T04:48:19;99935.59;;;17.74;68.62
50368;BME280;36281;34.132;-118.018;2023-04-28T04:50:48;99937.13;;;17.70;68.77
50368;BME280;36281;34.132;-118.018;2023-04-28T04:53:17;99945.09;;;17.60;69.18
50368;BME280;36281;34.132;-118.018;2023-04-28T04:55:46;99950.97;;;17.56;69.45
50368;BME280;36281;34.132;-118.018;2023-04-28T04:58:16;99941.28;;;17.50;69.55
50368;BME280;36281;34.132;-118.018;2023-04-28T05:00:45;99946.69;;;17.55;69.54
50368;BME280;36281;34.132;-118.018;2023-04-28T05:03:14;99952.28;;;17.54;69.80
50368;BME280;36281;34.132;-118.018;2023-04-28T05:05:45;99954.41;;;17.52;69.85
50368;BME280;36281;34.132;-118.018;2023-04-28T05:08:15;99952.50;;;17.47;69.91
50368;BME280;36281;34.132;-118.018;2023-04-28T05:10:44;99960.22;;;17.44;70.12
50368;BME280;36281;34.132;-118.018;2023-04-28T05:13:13;99958.56;;;17.38;70.41
50368;BME280;36281;34.132;-118.018;2023-04-28T05:15:42;99963.13;;;17.37;70.48
50368;BME280;36281;34.132;-118.018;2023-04-28T05:18:11;99955.09;;;17.37;70.49
50368;BME280;36281;34.132;-118.018;2023-04-28T05:20:41;99935.13;;;17.23;70.69
50368;BME280;36281;34.132;-118.018;2023-04-28T05:23:12;99950.09;;;17.19;70.83
50368;BME280;36281;34.132;-118.018;2023-04-28T05:25:41;99958.16;;;17.24;70.99
50368;BME280;36281;34.132;-118.018;2023-04-28T05:28:10;99962.91;;;17.17;71.56
50368;BME280;36281;34.132;-118.018;2023-04-28T05:30:39;99964.75;;;17.11;71.82
50368;BME280;36281;34.132;-118.018;2023-04-28T05:33:09;99962.00;;;17.06;72.07
50368;BME280;36281;34.132;-118.018;2023-04-28T05:35:38;99963.06;;;17.05;72.23
50368;BME280;36281;34.132;-118.018;2023-04-28T05:38:07;99965.66;;;17.00;72.32
50368;BME280;36281;34.132;-118.018;2023-04-28T05:40:37;99958.41;;;16.95;72.52
50368;BME280;36281;34.132;-118.018;2023-04-28T05:43:06;99959.41;;;16.89;72.93
50368;BME280;36281;34.132;-118.018;2023-04-28T05:45:35;99959.34;;;16.84;73.15
50368;BME280;36281;34.132;-118.018;2023-04-28T05:48:05;99963.56;;;16.80;73.32
50368;BME280;36281;34.132;-118.018;2023-04-28T05:50:34;99952.53;;;16.71;73.64
50368;BME280;36281;34.132;-118.018;2023-04-28T05:53:05;99960.22;;;16.68;74.06
50368;BME280;36281;34.132;-118.018;2023-04-28T05:55:35;99956.97;;;16.66;73.98
50368;BME280;36281;34.132;-118.018;2023-04-28T05:58:05;99966.03;;;16.65;74.14
50368;BME280;36281;34.132;-118.018;2023-04-28T06:00:35;99966.84;;;16.65;74.13
50368;BME280;36281;34.132;-118.018;2023-04-28T06:03:04;99963.94;;;16.67;74.01
50368;BME280;36281;34.132;-118.018;2023-04-28T06:05:43;99969.78;;;16.64;74.25
50368;BME280;36281;34.132;-118.018;2023-04-28T06:08:13;99972.66;;;16.57;74.23
50368;BME280;36281;34.132;-118.018;2023-04-28T06:10:42;99971.78;;;16.51;74.50
50368;BME280;36281;34.132;-118.018;2023-04-28T06:13:12;99969.59;;;16.48;74.72
50368;BME280;36281;34.132;-118.018;2023-04-28T06:15:42;99967.66;;;16.44;74.82
50368;BME280;36281;34.132;-118.018;2023-04-28T06:18:11;99975.34;;;16.40;75.06
50368;BME280;36281;34.132;-118.018;2023-04-28T06:20:40;99976.41;;;16.39;75.18
50368;BME280;36281;34.132;-118.018;2023-04-28T06:23:09;99975.88;;;16.37;75.34
50368;BME280;36281;34.132;-118.018;2023-04-28T06:25:38;99969.38;;;16.33;75.46
50368;BME280;36281;34.132;-118.018;2023-04-28T06:28:07;99965.66;;;16.34;75.50
50368;BME280;36281;34.132;-118.018;2023-04-28T06:30:38;99969.88;;;16.30;75.55
50368;BME280;36281;34.132;-118.018;2023-04-28T06:33:07;99961.78;;;16.25;75.62
50368;BME280;36281;34.132;-118.018;2023-04-28T06:35:36;99964.97;;;16.22;75.86
50368;BME280;36281;34.132;-118.018;2023-04-28T06:38:06;99970.31;;;16.22;76.09
50368;BME280;36281;34.132;-118.018;2023-04-28T06:40:35;99970.53;;;16.20;76.13
50368;BME280;36281;34.132;-118.018;2023-04-28T06:43:04;99959.84;;;16.20;76.03
50368;BME280;36281;34.132;-118.018;2023-04-28T06:45:33;99965.19;;;16.20;76.10
50368;BME280;36281;34.132;-118.018;2023-04-28T06:48:05;99964.72;;;16.23;76.23
50368;BME280;36281;34.132;-118.018;2023-04-28T06:50:36;99963.59;;;16.19;76.08
50368;BME280;36281;34.132;-118.018;2023-04-28T06:53:05;99966.19;;;16.14;76.34
50368;BME280;36281;34.132;-118.018;2023-04-28T06:55:35;99958.44;;;16.13;76.34
50368;BME280;36281;34.132;-118.018;2023-04-28T06:58:04;99959.22;;;16.13;76.52
50368;BME280;36281;34.132;-118.018;2023-04-28T07:00:33;99958.91;;;16.10;76.69
50368;BME280;36281;34.132;-118.018;2023-04-28T07:03:04;99956.16;;;16.05;76.66
50368;BME280;36281;34.132;-118.018;2023-04-28T07:05:33;99962.00;;;16.01;76.50
50368;BME280;36281;34.132;-118.018;2023-04-28T07:08:03;99961.34;;;15.94;76.98
50368;BME280;36281;34.132;-118.018;2023-04-28T07:10:32;99957.31;;;15.92;77.36
50368;BME280;36281;34.132;-118.018;2023-04-28T07:13:01;99956.75;;;15.90;77.57
50368;BME280;36281;34.132;-118.018;2023-04-28T07:15:30;99957.53;;;15.90;77.63
50368;BME280;36281;34.132;-118.018;2023-04-28T07:18:00;99940.31;;;15.81;77.43
50368;BME280;36281;34.132;-118.018;2023-04-28T07:20:31;99958.28;;;15.86;77.63
50368;BME280;36281;34.132;-118.018;2023-04-28T07:23:00;99954.81;;;15.85;77.62
50368;BME280;36281;34.132;-118.018;2023-04-28T07:25:29;99959.59;;;15.83;77.83
50368;BME280;36281;34.132;-118.018;2023-04-28T07:27:58;99951.84;;;15.82;77.80
50368;BME280;36281;34.132;-118.018;2023-04-28T07:30:27;99954.50;;;15.82;77.99
50368;BME280;36281;34.132;-118.018;2023-04-28T07:32:56;99944.03;;;15.80;77.89
50368;BME280;36281;34.132;-118.018;2023-04-28T07:35:26;99958.44;;;15.79;78.17
50368;BME280;36281;34.132;-118.018;2023-04-28T07:37:57;99957.00;;;15.71;78.57
50368;BME280;36281;34.132;-118.018;2023-04-28T07:40:26;99945.19;;;15.67;78.76
50368;BME280;36281;34.132;-118.018;2023-04-28T07:42:55;99944.38;;;15.67;78.80
50368;BME280;36281;34.132;-118.018;2023-04-28T07:45:24;99938.25;;;15.66;79.10
50368;BME280;36281;34.132;-118.018;2023-04-28T07:47:53;99942.75;;;15.66;78.86
50368;BME280;36281;34.132;-118.018;2023-04-28T07:50:22;99934.19;;;15.64;78.96
50368;BME280;36281;34.132;-118.018;2023-04-28T07:52:52;99932.31;;;15.64;78.94
50368;BME280;36281;34.132;-118.018;2023-04-28T07:55:22;99929.28;;;15.61;79.00
50368;BME280;36281;34.132;-118.018;2023-04-28T07:57:51;99924.75;;;15.61;79.07
50368;BME280;36281;34.132;-118.018;2023-04-28T08:00:21;99920.72;;;15.59;79.30
50368;BME280;36281;34.132;-118.018;2023-04-28T08:02:50;99919.34;;;15.56;79.18
50368;BME280;36281;34.132;-118.018;2023-04-28T08:05:19;99916.13;;;15.54;79.40
50368;BME280;36281;34.132;-118.018;2023-04-28T08:07:48;99912.09;;;15.51;79.47
50368;BME280;36281;34.132;-118.018;2023-04-28T08:10:17;99915.78;;;15.50;79.64
50368;BME280;36281;34.132;-118.018;2023-04-28T08:12:48;99910.94;;;15.47;79.75
50368;BME280;36281;34.132;-118.018;2023-04-28T08:15:17;99917.09;;;15.48;79.81
50368;BME280;36281;34.132;-118.018;2023-04-28T08:17:46;99909.56;;;15.45;80.00
50368;BME280;36281;34.132;-118.018;2023-04-28T08:20:16;99914.34;;;15.43;80.27
50368;BME280;36281;34.132;-118.018;2023-04-28T08:22:51;99907.38;;;15.42;80.38
50368;BME280;36281;34.132;-118.018;2023-04-28T08:25:20;99901.47;;;15.40;80.33
50368;BME280;36281;34.132;-118.018;2023-04-28T08:27:51;99898.00;;;15.39;80.23
50368;BME280;36281;34.132;-118.018;2023-04-28T08:30:22;99902.28;;;15.40;80.15
50368;BME280;36281;34.132;-118.018;2023-04-28T08:32:51;99883.84;;;15.39;80.22
50368;BME280;36281;34.132;-118.018;2023-04-28T08:35:20;99889.66;;;15.36;80.26
50368;BME280;36281;34.132;-118.018;2023-04-28T08:37:51;99890.97;;;15.33;80.37
50368;BME280;36281;34.132;-118.018;2023-04-28T08:40:20;99886.09;;;15.30;80.47
50368;BME280;36281;34.132;-118.018;2023-04-28T08:42:54;99886.34;;;15.29;80.64
50368;BME280;36281;34.132;-118.018;2023-04-28T08:45:23;99881.25;;;15.27;80.71
50368;BME280;36281;34.132;-118.018;2023-04-28T08:47:56;99868.31;;;15.19;80.45
50368;BME280;36281;34.132;-118.018;2023-04-28T08:50:29;99879.06;;;15.24;80.95
50368;BME280;36281;34.132;-118.018;2023-04-28T08:53:01;99881.75;;;15.24;81.21
50368;BME280;36281;34.132;-118.018;2023-04-28T08:55:33;99882.00;;;15.22;81.12
50368;BME280;36281;34.132;-118.018;2023-04-28T08:58:04;99877.69;;;15.21;81.00
50368;BME280;36281;34.132;-118.018;2023-04-28T09:00:36;99884.56;;;15.17;81.16
50368;BME280;36281;34.132;-118.018;2023-04-28T09:03:05;99875.19;;;15.15;81.48
50368;BME280;36281;34.132;-118.018;2023-04-28T09:05:36;99873.81;;;15.12;81.55
50368;BME280;36281;34.132;-118.018;2023-04-28T09:08:06;99874.63;;;15.13;81.39
50368;BME280;36281;34.132;-118.018;2023-04-28T09:10:35;99874.03;;;15.11;81.37
50368;BME280;36281;34.132;-118.018;2023-04-28T09:13:07;99867.34;;;15.08;81.21
50368;BME280;36281;34.132;-118.018;2023-04-28T09:15:37;99867.34;;;15.08;81.49
50368;BME280;36281;34.132;-118.018;2023-04-28T09:18:14;99868.63;;;15.06;81.70
50368;BME280;36281;34.132;-118.018;2023-04-28T09:20:44;99870.72;;;15.04;82.00
50368;BME280;36281;34.132;-118.018;2023-04-28T09:23:15;99870.72;;;15.04;82.14
50368;BME280;36281;34.132;-118.018;2023-04-28T09:26:02;99867.47;;;15.02;82.16
50368;BME280;36281;34.132;-118.018;2023-04-28T09:28:34;99868.53;;;15.00;81.92
50368;BME280;36281;34.132;-118.018;2023-04-28T09:31:04;99872.25;;;14.99;81.99
50368;BME280;36281;34.132;-118.018;2023-04-28T09:33:33;99866.91;;;14.99;82.00
50368;BME280;36281;34.132;-118.018;2023-04-28T09:36:02;99867.97;;;14.98;82.03
50368;BME280;36281;34.132;-118.018;2023-04-28T09:38:31;99862.31;;;14.95;82.02
50368;BME280;36281;34.132;-118.018;2023-04-28T09:41:10;99866.19;;;14.87;82.39
50368;BME280;36281;34.132;-118.018;2023-04-28T09:43:41;99860.84;;;14.87;82.20
50368;BME280;36281;34.132;-118.018;2023-04-28T09:46:10;99865.03;;;14.83;82.20
50368;BME280;36281;34.132;-118.018;2023-04-28T09:48:39;99862.28;;;14.78;82.42
50368;BME280;36281;34.132;-118.018;2023-04-28T09:51:08;99855.91;;;14.79;82.33
50368;BME280;36281;34.132;-118.018;2023-04-28T09:53:39;99858.22;;;14.76;82.60
50368;BME280;36281;34.132;-118.018;2023-04-28T09:56:09;99863.56;;;14.76;82.83
50368;BME280;36281;34.132;-118.018;2023-04-28T09:58:42;99864.03;;;14.72;83.07
50368;BME280;36281;34.132;-118.018;2023-04-28T10:01:13;99862.41;;;14.71;82.78
50368;BME280;36281;34.132;-118.018;2023-04-28T10:03:43;99863.47;;;14.70;82.52
50368;BME280;36281;34.132;-118.018;2023-04-28T10:06:13;99858.84;;;14.66;82.54
50368;BME280;36281;34.132;-118.018;2023-04-28T10:08:44;99865.22;;;14.65;82.47
50368;BME280;36281;34.132;-118.018;2023-04-28T10:11:15;99861.75;;;14.64;82.82
50368;BME280;36281;34.132;-118.018;2023-04-28T10:13:46;99863.63;;;14.64;83.19
50368;BME280;36281;34.132;-118.018;2023-04-28T10:16:16;99868.34;;;14.62;82.76
50368;BME280;36281;34.132;-118.018;2023-04-28T10:18:46;99866.75;;;14.61;82.33
50368;BME280;36281;34.132;-118.018;2023-04-28T10:21:17;99870.47;;;14.60;82.39
50368;BME280;36281;34.132;-118.018;2023-04-28T10:24:02;99875.78;;;14.60;83.25
50368;BME280;36281;34.132;-118.018;2023-04-28T10:27:02;99868.75;;;14.54;83.94
50368;BME280;36281;34.132;-118.018;2023-04-28T10:29:35;99877.81;;;14.53;84.35
50368;BME280;36281;34.132;-118.018;2023-04-28T10:32:20;99874.53;;;14.51;84.15
50368;BME280;36281;34.132;-118.018;2023-04-28T10:34:51;99876.66;;;14.48;83.96
50368;BME280;36281;34.132;-118.018;2023-04-28T10:40:33;99884.84;;;14.47;83.31
50368;BME280;36281;34.132;-118.018;2023-04-28T10:43:05;99884.41;;;14.38;83.58
50368;BME280;36281;34.132;-118.018;2023-04-28T10:46:07;99874.22;;;14.35;83.82
50368;BME280;36281;34.132;-118.018;2023-04-28T10:48:56;99878.06;;;14.28;84.42
50368;BME280;36281;34.132;-118.018;2023-04-28T10:51:30;99874.59;;;14.27;84.35
50368;BME280;36281;34.132;-118.018;2023-04-28T10:54:17;99871.44;;;14.30;84.38
50368;BME280;36281;34.132;-118.018;2023-04-28T10:57:14;99880.84;;;14.33;84.36
50368;BME280;36281;34.132;-118.018;2023-04-28T10:59:43;99880.34;;;14.36;84.47
50368;BME280;36281;34.132;-118.018;2023-04-28T11:02:37;99884.06;;;14.35;84.84
50368;BME280;36281;34.132;-118.018;2023-04-28T11:05:13;99876.88;;;14.35;84.87
50368;BME280;36281;34.132;-118.018;2023-04-28T11:11:18;99880.69;;;14.39;85.78
50368;BME280;36281;34.132;-118.018;2023-04-28T11:13:49;99876.72;;;14.42;85.90
50368;BME280;36281;34.132;-118.018;2023-04-28T11:16:20;99879.88;;;14.39;86.18
50368;BME280;36281;34.132;-118.018;2023-04-28T11:18:56;99888.91;;;14.50;86.65
50368;BME280;36281;34.132;-118.018;2023-04-28T11:21:26;99885.69;;;14.47;86.89
50368;BME280;36281;34.132;-118.018;2023-04-28T11:23:56;99884.25;;;14.57;87.42
50368;BME280;36281;34.132;-118.018;2023-04-28T11:26:26;99881.69;;;14.62;87.44
50368;BME280;36281;34.132;-118.018;2023-04-28T11:28:57;99886.09;;;14.68;87.61
50368;BME280;36281;34.132;-118.018;2023-04-28T11:31:26;99890.94;;;14.71;87.68
50368;BME280;36281;34.132;-118.018;2023-04-28T11:33:59;99882.72;;;14.72;87.86
50368;BME280;36281;34.132;-118.018;2023-04-28T11:36:33;99880.25;;;14.71;87.92
50368;BME280;36281;34.132;-118.018;2023-04-28T11:39:04;99889.41;;;14.75;87.70
50368;BME280;36281;34.132;-118.018;2023-04-28T11:41:35;99870.66;;;14.70;87.69
50368;BME280;36281;34.132;-118.018;2023-04-28T11:44:11;99888.94;;;14.78;87.75
50368;BME280;36281;34.132;-118.018;2023-04-28T11:46:46;99889.03;;;14.83;87.60
50368;BME280;36281;34.132;-118.018;2023-04-28T11:49:20;99889.75;;;14.79;87.38
50368;BME280;36281;34.132;-118.018;2023-04-28T11:51:49;99894.28;;;14.78;87.27
50368;BME280;36281;34.132;-118.018;2023-04-28T11:54:23;99897.75;;;14.79;87.18
50368;BME280;36281;34.132;-118.018;2023-04-28T11:56:56;99896.69;;;14.80;87.21
50368;BME280;36281;34.132;-118.018;2023-04-28T11:59:26;99883.59;;;14.78;87.45
50368;BME280;36281;34.132;-118.018;2023-04-28T12:01:56;99892.75;;;14.82;87.40
50368;BME280;36281;34.132;-118.018;2023-04-28T12:04:29;99893.31;;;14.84;87.35
50368;BME280;36281;34.132;-118.018;2023-04-28T12:07:08;99888.44;;;14.81;87.11
50368;BME280;36281;34.132;-118.018;2023-04-28T12:09:39;99893.31;;;14.84;87.13
50368;BME280;36281;34.132;-118.018;2023-04-28T12:12:10;99890.91;;;14.83;87.28
50368;BME280;36281;34.132;-118.018;2023-04-28T12:14:56;99900.25;;;14.85;87.44
50368;BME280;36281;34.132;-118.018;2023-04-28T12:17:26;99893.16;;;14.91;87.66
50368;BME280;36281;34.132;-118.018;2023-04-28T12:19:59;99894.81;;;14.92;87.09
50368;BME280;36281;34.132;-118.018;2023-04-28T12:22:28;99893.50;;;14.94;86.85
50368;BME280;36281;34.132;-118.018;2023-04-28T12:25:05;99881.59;;;14.85;86.81
50368;BME280;36281;34.132;-118.018;2023-04-28T12:27:35;99890.28;;;14.92;86.97
50368;BME280;36281;34.132;-118.018;2023-04-28T12:30:24;99903.59;;;14.92;86.64
50368;BME280;36281;34.132;-118.018;2023-04-28T12:32:52;99894.56;;;14.93;86.34
50368;BME280;36281;34.132;-118.018;2023-04-28T12:35:26;99898.19;;;14.87;86.28
50368;BME280;36281;34.132;-118.018;2023-04-28T12:37:56;99900.84;;;14.87;86.73
50368;BME280;36281;34.132;-118.018;2023-04-28T12:40:26;99897.94;;;14.89;86.74
50368;BME280;36281;34.132;-118.018;2023-04-28T12:42:55;99902.22;;;14.90;86.89
50368;BME280;36281;34.132;-118.018;2023-04-28T12:45:24;99916.94;;;14.92;86.95
50368;BME280;36281;34.132;-118.018;2023-04-28T12:47:53;99913.78;;;14.95;86.74
50368;BME280;36281;34.132;-118.018;2023-04-28T12:50:24;99919.09;;;14.95;86.68
50368;BME280;36281;34.132;-118.018;2023-04-28T12:52:55;99923.06;;;14.93;86.64
50368;BME280;36281;34.132;-118.018;2023-04-28T12:55:25;99923.88;;;14.93;86.69